Time;durP1;ratioP1;P1;durP2;ratioP2;P2;SDS_P1;SDS_P2;PMS_P1;PMS_P2;Temp;Humidity;BMP_temperature;BMP_pressure;BME280_temperature;BME280_humidity;BME280_pressure;Samples;Min_cycle;Max_cycle;Signal;HPM_P1;HPM_P2
2022/07/31 00:01:35;;;;;;;2.57;2.37;;;18.60;99.00;;;;;;5017671;28;20456;-84
2022/07/31 00:04:01;;;;;;;7.43;2.70;;;18.70;99.10;;;;;;5019868;28;20193;-84
2022/07/31 00:06:27;;;;;;;5.73;2.80;;;18.70;99.60;;;;;;5018995;28;20189;-84
2022/07/31 00:08:52;;;;;;;4.30;2.80;;;18.70;99.90;;;;;;5015992;28;20464;-85
2022/07/31 00:11:18;;;;;;;2.43;2.23;;;18.60;99.90;;;;;;5020450;28;20213;-85
2022/07/31 00:13:43;;;;;;;2.63;2.20;;;18.60;99.90;;;;;;5018696;28;21266;-84
2022/07/31 00:16:09;;;;;;;2.90;2.70;;;18.60;99.90;;;;;;5017272;28;20193;-83
2022/07/31 00:18:35;;;;;;;3.43;2.63;;;18.60;99.90;;;;;;5018950;28;20197;-84
2022/07/31 00:21:01;;;;;;;3.90;2.40;;;18.50;99.90;;;;;;5020834;28;20186;-83
2022/07/31 00:23:28;;;;;;;5.57;2.70;;;18.50;99.90;;;;;;5020640;28;20186;-84
2022/07/31 00:25:53;;;;;;;5.10;2.40;;;18.50;99.90;;;;;;5018704;28;20851;-84
2022/07/31 00:28:19;;;;;;;2.60;2.17;;;18.40;99.90;;;;;;5019611;28;20544;-83
2022/07/31 00:30:44;;;;;;;9.30;3.40;;;18.40;99.90;;;;;;5023964;28;20216;-84
2022/07/31 00:33:10;;;;;;;4.20;2.40;;;18.40;99.90;;;;;;5019995;28;20186;-84
2022/07/31 00:35:35;;;;;;;3.73;2.53;;;18.30;99.90;;;;;;5023272;28;20193;-83
2022/07/31 00:38:01;;;;;;;2.60;2.20;;;18.30;99.90;;;;;;5025562;28;20233;-83
2022/07/31 00:40:26;;;;;;;3.00;2.20;;;18.40;99.90;;;;;;5025703;28;20206;-83
2022/07/31 00:42:52;;;;;;;5.57;2.70;;;18.40;99.90;;;;;;5018249;28;20200;-83
2022/07/31 00:45:17;;;;;;;3.23;2.63;;;18.20;99.90;;;;;;5019416;28;20636;-83
2022/07/31 00:47:43;;;;;;;6.13;3.50;;;18.10;99.90;;;;;;5021922;28;20181;-83
2022/07/31 00:50:10;;;;;;;3.90;2.60;;;18.00;99.90;;;;;;5009418;28;22094;-83
2022/07/31 00:52:35;;;;;;;4.17;2.53;;;17.90;99.90;;;;;;5020168;28;20241;-83
2022/07/31 00:55:01;;;;;;;4.20;2.77;;;17.90;99.90;;;;;;5012348;28;20465;-83
2022/07/31 00:57:26;;;;;;;4.23;2.50;;;17.90;99.90;;;;;;5017957;28;20201;-83
2022/07/31 00:59:52;;;;;;;4.03;2.97;;;17.80;99.90;;;;;;5014854;28;20207;-85
2022/07/31 01:02:18;;;;;;;2.67;2.47;;;17.70;99.90;;;;;;5015185;28;20884;-85
2022/07/31 01:04:43;;;;;;;3.03;2.67;;;17.70;99.90;;;;;;4996817;28;20637;-85
2022/07/31 01:07:09;;;;;;;3.57;2.63;;;17.60;99.90;;;;;;5018973;28;20783;-85
2022/07/31 01:09:34;;;;;;;3.13;2.80;;;17.50;99.90;;;;;;5019755;28;20667;-85
2022/07/31 01:12:13;;;;;;;4.20;2.53;;;17.50;99.90;;;;;;5018426;28;20341;-85
2022/07/31 01:14:44;;;;;;;2.97;2.53;;;17.40;99.90;;;;;;5018419;28;20193;-84
2022/07/31 01:17:11;;;;;;;3.40;2.80;;;17.40;99.90;;;;;;5020382;28;21145;-85
2022/07/31 01:19:43;;;;;;;2.87;2.30;;;17.30;99.90;;;;;;4999817;28;20460;-84
2022/07/31 01:23:00;;;;;;;5.90;2.73;;;17.10;99.90;;;;;;5017130;28;20456;-83
2022/07/31 01:25:51;;;;;;;3.07;2.60;;;17.00;99.90;;;;;;4975615;28;20513;-83
2022/07/31 01:28:47;;;;;;;2.83;2.50;;;17.00;99.90;;;;;;5019038;28;20444;-84
2022/07/31 01:31:17;;;;;;;3.40;2.97;;;17.00;99.90;;;;;;5017972;28;20468;-83
2022/07/31 01:33:50;;;;;;;3.93;2.37;;;17.00;99.90;;;;;;5017879;28;20436;-84
2022/07/31 01:36:21;;;;;;;3.33;2.80;;;16.80;99.90;;;;;;5018416;28;20420;-83
2022/07/31 01:38:50;;;;;;;4.67;2.47;;;16.80;99.90;;;;;;5020329;28;20448;-83
2022/07/31 01:41:19;;;;;;;3.07;2.80;;;16.80;99.90;;;;;;5018442;28;20432;-83
2022/07/31 01:43:47;;;;;;;2.80;2.60;;;16.70;99.90;;;;;;5018402;28;20445;-83
2022/07/31 01:46:15;;;;;;;3.47;2.27;;;16.70;99.90;;;;;;5016700;28;20449;-83
2022/07/31 01:48:42;;;;;;;4.97;2.70;;;16.60;99.90;;;;;;5016187;28;21088;-84
2022/07/31 01:51:09;;;;;;;3.20;2.83;;;16.50;99.90;;;;;;5018122;28;20466;-84
2022/07/31 01:53:35;;;;;;;3.33;2.87;;;16.50;99.90;;;;;;5019814;28;20494;-84
2022/07/31 01:56:02;;;;;;;3.00;2.70;;;16.40;99.90;;;;;;5016894;28;20434;-84
2022/07/31 01:58:36;;;;;;;3.37;2.70;;;16.40;99.90;;;;;;5011842;28;20549;-84
2022/07/31 02:01:04;;;;;;;2.30;2.10;;;16.40;99.90;;;;;;5008436;28;20457;-86
2022/07/31 02:03:32;;;;;;;3.27;2.70;;;16.30;99.90;;;;;;5021197;28;20464;-86
2022/07/31 02:06:00;;;;;;;4.50;3.20;;;16.30;99.90;;;;;;5022872;28;20465;-86
2022/07/31 02:08:26;;;;;;;3.20;2.87;;;16.30;99.90;;;;;;5002615;28;20527;-87
2022/07/31 02:10:53;;;;;;;5.00;3.00;;;16.20;99.90;;;;;;5019760;28;20471;-87
2022/07/31 02:13:20;;;;;;;3.07;2.77;;;16.20;99.90;;;;;;5019352;28;20600;-87
2022/07/31 02:15:47;;;;;;;4.13;2.97;;;16.20;99.90;;;;;;5004327;28;20528;-85
2022/07/31 02:18:14;;;;;;;2.93;2.50;;;16.20;99.90;;;;;;5031146;28;20529;-87
2022/07/31 02:20:40;;;;;;;5.60;2.90;;;16.20;99.90;;;;;;5012435;28;20448;-87
2022/07/31 02:23:06;;;;;;;3.20;3.00;;;16.10;99.90;;;;;;5011084;28;20468;-87
2022/07/31 02:25:35;;;;;;;4.70;2.57;;;16.10;99.90;;;;;;5022317;28;20452;-89
2022/07/31 02:28:06;;;;;;;3.20;2.90;;;16.20;99.90;;;;;;5026704;28;20432;-86
2022/07/31 02:30:34;;;;;;;5.63;3.73;;;16.10;99.90;;;;;;5026060;28;20547;-88
2022/07/31 02:33:00;;;;;;;9.13;2.87;;;16.20;99.90;;;;;;5021836;28;20493;-88
2022/07/31 02:35:27;;;;;;;4.77;2.97;;;16.20;99.90;;;;;;5021133;28;20436;-88
2022/07/31 02:37:54;;;;;;;3.30;3.00;;;16.20;99.90;;;;;;5010860;28;20849;-88
2022/07/31 02:40:23;;;;;;;3.67;3.37;;;16.20;99.90;;;;;;5004420;28;20487;-86
2022/07/31 02:42:50;;;;;;;4.27;2.67;;;16.20;99.90;;;;;;5006890;28;20786;-88
2022/07/31 02:45:16;;;;;;;5.87;3.00;;;16.20;99.90;;;;;;5023054;28;20443;-87
2022/07/31 02:47:42;;;;;;;4.20;2.67;;;16.20;99.90;;;;;;5003792;28;20463;-87
2022/07/31 02:50:09;;;;;;;7.83;3.90;;;16.20;99.90;;;;;;5018064;28;20544;-87
2022/07/31 02:52:35;;;;;;;3.20;2.93;;;16.20;99.90;;;;;;5022315;28;20560;-88
2022/07/31 02:55:02;;;;;;;4.17;2.90;;;16.20;99.90;;;;;;5024880;28;20458;-86
2022/07/31 02:57:28;;;;;;;3.23;2.87;;;16.20;99.90;;;;;;5020336;28;20179;-87
2022/07/31 02:59:53;;;;;;;5.07;3.47;;;16.20;99.90;;;;;;5031815;28;20455;-86
2022/07/31 03:02:20;;;;;;;4.27;2.83;;;16.20;99.90;;;;;;5011404;28;20773;-88
2022/07/31 03:04:45;;;;;;;7.23;3.80;;;16.20;99.90;;;;;;5023776;28;20170;-88
2022/07/31 03:07:11;;;;;;;4.73;3.07;;;16.20;99.90;;;;;;5005239;28;20425;-85
2022/07/31 03:09:36;;;;;;;6.30;2.87;;;16.20;99.90;;;;;;5025795;28;20573;-88
2022/07/31 03:12:02;;;;;;;4.80;3.27;;;16.10;99.90;;;;;;5005995;28;20225;-88
2022/07/31 03:14:29;;;;;;;6.43;3.40;;;16.00;99.90;;;;;;5009660;28;20189;-88
2022/07/31 03:16:57;;;;;;;3.37;2.97;;;15.90;99.90;;;;;;5019205;28;20174;-88
2022/07/31 03:19:24;;;;;;;7.13;3.00;;;15.70;99.90;;;;;;4999748;28;20464;-87
2022/07/31 03:21:50;;;;;;;8.23;3.03;;;15.60;99.90;;;;;;5018981;28;20494;-86
2022/07/31 03:24:17;;;;;;;3.43;3.10;;;15.60;99.90;;;;;;5009347;28;20459;-87
2022/07/31 03:26:42;;;;;;;2.50;2.30;;;15.50;99.90;;;;;;5018026;28;20564;-86
2022/07/31 03:29:08;;;;;;;3.97;3.07;;;15.50;99.90;;;;;;5017137;28;20567;-87
2022/07/31 03:31:34;;;;;;;3.90;3.50;;;15.60;99.90;;;;;;5004573;28;20732;-87
2022/07/31 03:34:00;;;;;;;4.37;3.17;;;15.60;99.90;;;;;;5016631;28;20543;-86
2022/07/31 03:36:26;;;;;;;5.63;2.70;;;17.20;99.90;;;;;;5017754;28;20289;-85
2022/07/31 03:38:51;;;;;;;3.30;3.00;;;15.70;99.90;;;;;;5019312;28;20463;-87
2022/07/31 03:41:17;;;;;;;4.83;3.10;;;15.70;99.90;;;;;;5017669;28;20437;-84
2022/07/31 03:43:44;;;;;;;3.90;3.33;;;15.70;99.90;;;;;;5020410;28;20201;-86
2022/07/31 03:46:11;;;;;;;3.83;3.43;;;15.70;99.90;;;;;;5018960;28;20201;-86
2022/07/31 03:48:37;;;;;;;4.17;3.20;;;15.80;99.90;;;;;;5018535;28;20521;-85
2022/07/31 03:51:03;;;;;;;3.83;3.43;;;15.80;99.90;;;;;;5015755;28;20571;-85
2022/07/31 03:53:30;;;;;;;4.70;3.13;;;15.80;99.90;;;;;;5014633;28;20188;-85
2022/07/31 03:55:56;;;;;;;5.97;3.57;;;15.80;99.90;;;;;;5017458;28;20647;-85
2022/07/31 03:58:22;;;;;;;5.47;3.40;;;15.80;99.90;;;;;;5012109;28;20437;-85
2022/07/31 04:00:49;;;;;;;4.03;3.33;;;15.90;99.90;;;;;;5017094;28;20598;-85
2022/07/31 04:03:14;;;;;;;4.37;3.40;;;15.90;99.90;;;;;;5020521;28;20825;-86
2022/07/31 04:05:41;;;;;;;6.40;3.30;;;16.00;99.90;;;;;;5022067;28;20435;-85
2022/07/31 04:08:07;;;;;;;7.30;3.23;;;16.10;99.90;;;;;;5008896;28;20273;-85
2022/07/31 04:10:35;;;;;;;4.67;2.70;;;16.20;99.90;;;;;;5019504;28;20554;-85
2022/07/31 04:13:04;;;;;;;4.10;3.70;;;16.40;99.90;;;;;;5018355;28;20440;-85
2022/07/31 04:15:30;;;;;;;3.77;3.43;;;16.40;99.90;;;;;;5021987;28;20519;-86
2022/07/31 04:17:56;;;;;;;3.47;3.17;;;16.50;99.90;;;;;;5004934;28;20458;-86
2022/07/31 04:20:22;;;;;;;4.37;3.73;;;16.60;99.90;;;;;;5011144;28;20830;-85
2022/07/31 04:22:48;;;;;;;3.00;2.70;;;16.70;99.90;;;;;;5022814;28;20263;-86
2022/07/31 04:25:14;;;;;;;3.47;3.17;;;16.90;99.90;;;;;;5020461;28;20252;-86
2022/07/31 04:27:39;;;;;;;4.80;3.50;;;17.00;99.90;;;;;;5020828;28;20631;-85
2022/07/31 04:30:07;;;;;;;10.00;3.77;;;17.10;99.90;;;;;;5018811;28;20519;-85
2022/07/31 04:32:33;;;;;;;3.57;3.23;;;17.20;99.90;;;;;;5005698;28;20212;-85
2022/07/31 04:34:58;;;;;;;3.83;3.33;;;17.20;99.90;;;;;;5020372;28;22311;-85
2022/07/31 04:37:24;;;;;;;3.60;3.30;;;17.10;99.90;;;;;;5004994;28;20427;-86
2022/07/31 04:39:49;;;;;;;8.47;4.23;;;17.30;99.90;;;;;;5022890;28;20206;-84
2022/07/31 04:42:15;;;;;;;5.73;3.80;;;18.10;99.90;;;;;;5020915;28;20177;-84
2022/07/31 04:44:40;;;;;;;9.37;3.67;;;19.40;99.90;;;;;;5024140;28;20197;-86
2022/07/31 04:47:06;;;;;;;3.77;2.60;;;21.10;99.90;;;;;;5056533;28;20196;-86
2022/07/31 04:49:32;;;;;;;3.00;2.70;;;22.90;99.90;;;;;;5056176;28;20650;-87
2022/07/31 04:51:59;;;;;;;4.10;3.20;;;24.80;99.90;;;;;;5036672;28;20455;-87
2022/07/31 04:54:25;;;;;;;3.80;3.40;;;26.70;97.80;;;;;;5041660;28;20420;-86
2022/07/31 04:56:51;;;;;;;5.33;2.90;;;30.60;93.70;;;;;;5012215;28;20436;-85
2022/07/31 04:59:19;;;;;;;4.37;3.70;;;30.50;85.60;;;;;;5017982;28;20298;-85
2022/07/31 05:01:46;;;;;;;4.33;3.40;;;32.30;75.40;;;;;;5005145;28;20193;-86
2022/07/31 05:04:12;;;;;;;3.53;3.00;;;32.50;63.20;;;;;;5021600;28;20531;-86
2022/07/31 05:06:40;;;;;;;4.00;3.60;;;32.20;62.20;;;;;;5002605;28;20886;-84
2022/07/31 05:09:08;;;;;;;5.03;3.13;;;32.50;61.10;;;;;;5020295;28;20465;-86
2022/07/31 05:11:35;;;;;;;5.57;4.17;;;32.70;59.10;;;;;;5003050;28;20777;-86
2022/07/31 05:14:03;;;;;;;10.00;4.57;;;31.20;58.40;;;;;;5003090;28;20571;-86
2022/07/31 05:16:30;;;;;;;5.53;4.33;;;29.40;60.90;;;;;;5021582;28;20517;-84
2022/07/31 05:18:56;;;;;;;4.30;3.90;;;27.90;65.70;;;;;;5022469;28;20948;-85
2022/07/31 05:21:23;;;;;;;4.90;4.00;;;26.30;70.50;;;;;;5019485;28;20456;-85
2022/07/31 05:23:49;;;;;;;5.10;4.60;;;25.50;74.10;;;;;;5019516;28;20434;-86
2022/07/31 05:26:16;;;;;;;6.13;5.57;;;24.80;77.80;;;;;;5022111;28;20433;-85
2022/07/31 05:28:42;;;;;;;6.77;4.70;;;23.60;83.30;;;;;;5002992;28;21253;-87
2022/07/31 05:31:08;;;;;;;8.83;4.40;;;23.00;87.90;;;;;;5002357;28;20894;-85
2022/07/31 05:33:34;;;;;;;7.33;4.97;;;22.30;90.90;;;;;;5000257;28;20519;-86
2022/07/31 05:36:01;;;;;;;6.83;5.23;;;21.80;92.60;;;;;;5022399;28;21051;-87
2022/07/31 05:38:27;;;;;;;5.70;5.20;;;21.10;96.30;;;;;;5001236;28;20442;-87
2022/07/31 05:40:53;;;;;;;5.97;5.40;;;21.30;96.90;;;;;;5016991;28;20440;-87
2022/07/31 05:43:19;;;;;;;6.87;4.97;;;21.10;99.20;;;;;;5018229;28;20433;-87
2022/07/31 05:45:47;;;;;;;7.97;4.90;;;20.90;99.90;;;;;;5014145;28;20189;-88
2022/07/31 05:48:13;;;;;;;5.10;4.47;;;20.80;99.90;;;;;;5015418;28;20497;-88
2022/07/31 05:50:46;;;;;;;6.53;5.30;;;20.70;99.90;;;;;;5016431;28;20562;-87
2022/07/31 05:53:15;;;;;;;5.13;4.67;;;20.70;99.90;;;;;;5008341;28;20433;-87
2022/07/31 05:55:42;;;;;;;4.83;4.33;;;20.90;99.90;;;;;;5018084;28;20437;-86
2022/07/31 05:58:08;;;;;;;11.37;4.97;;;20.90;99.90;;;;;;5016705;28;20428;-86
2022/07/31 06:00:34;;;;;;;4.80;4.30;;;20.80;99.90;;;;;;5004614;28;20762;-87
2022/07/31 06:03:01;;;;;;;6.67;4.97;;;;;;;;;;5001524;28;20178;-86
2022/07/31 06:05:31;;;;;;;8.60;4.83;;;20.50;99.90;;;;;;5019694;28;20437;-87
2022/07/31 06:07:57;;;;;;;10.20;4.77;;;20.30;99.90;;;;;;5020551;28;20424;-88
2022/07/31 06:10:24;;;;;;;6.03;4.27;;;20.20;99.90;;;;;;5003644;28;20546;-87
2022/07/31 06:12:49;;;;;;;5.57;4.80;;;20.20;99.90;;;;;;5019506;28;20554;-87
2022/07/31 06:15:15;;;;;;;7.20;4.87;;;20.30;99.90;;;;;;5017049;28;20586;-87
2022/07/31 06:17:42;;;;;;;6.33;4.90;;;20.50;99.90;;;;;;5004040;28;20208;-85
2022/07/31 06:20:09;;;;;;;4.40;4.00;;;21.00;99.90;;;;;;5016327;28;20495;-88
2022/07/31 06:22:36;;;;;;;8.50;4.80;;;21.20;99.90;;;;;;5020890;28;20492;-89
2022/07/31 06:25:02;;;;;;;6.47;4.30;;;21.50;99.90;;;;;;5004487;28;20432;-88
2022/07/31 06:27:28;;;;;;;4.37;4.00;;;21.90;99.90;;;;;;5007005;28;20439;-86
2022/07/31 06:29:55;;;;;;;5.10;4.37;;;22.00;99.90;;;;;;5020186;28;20456;-87
2022/07/31 06:32:20;;;;;;;5.03;4.53;;;22.40;99.90;;;;;;5005053;28;20679;-87
2022/07/31 06:34:46;;;;;;;5.50;4.13;;;22.60;99.90;;;;;;5009280;28;20448;-87
2022/07/31 06:37:11;;;;;;;6.10;4.10;;;24.70;99.90;;;;;;5020942;28;20258;-87
2022/07/31 06:39:37;;;;;;;5.00;3.90;;;23.00;99.90;;;;;;5021838;28;20198;-87
2022/07/31 06:42:03;;;;;;;4.83;4.00;;;22.70;99.90;;;;;;5021945;28;20187;-87
2022/07/31 06:44:31;;;;;;;4.97;4.57;;;22.90;99.90;;;;;;5002448;28;20194;-86
2022/07/31 06:46:57;;;;;;;8.53;4.90;;;23.20;99.90;;;;;;5009516;28;20221;-87
2022/07/31 06:49:22;;;;;;;4.80;3.73;;;23.30;99.90;;;;;;5020140;28;20456;-87
2022/07/31 06:51:48;;;;;;;5.40;4.00;;;23.60;99.40;;;;;;5003773;28;20909;-86
2022/07/31 06:54:14;;;;;;;5.20;4.40;;;23.60;99.70;;;;;;5022576;28;20174;-86
2022/07/31 06:56:39;;;;;;;5.07;3.47;;;23.70;99.00;;;;;;5021487;28;20316;-87
2022/07/31 06:59:06;;;;;;;4.20;3.80;;;23.80;98.70;;;;;;5022207;28;20448;-87
2022/07/31 07:01:32;;;;;;;4.77;3.70;;;23.90;98.00;;;;;;5024289;28;20235;-86
2022/07/31 07:03:57;;;;;;;5.47;4.00;;;24.10;98.10;;;;;;5004694;28;20493;-87
2022/07/31 07:06:24;;;;;;;8.07;4.50;;;23.60;97.70;;;;;;5007700;28;21064;-88
2022/07/31 07:08:50;;;;;;;5.17;4.00;;;23.40;98.90;;;;;;5019904;28;20186;-87
2022/07/31 07:11:16;;;;;;;5.17;4.20;;;23.30;98.80;;;;;;5028086;28;20538;-88
2022/07/31 07:13:41;;;;;;;4.77;4.37;;;23.40;98.40;;;;;;5036816;28;20423;-86
2022/07/31 07:16:07;;;;;;;7.73;4.10;;;23.80;98.60;;;;;;5028731;28;20170;-87
2022/07/31 07:18:33;;;;;;;8.70;4.60;;;24.00;97.10;;;;;;5003007;28;20204;-88
2022/07/31 07:20:58;;;;;;;5.40;4.30;;;24.50;96.40;;;;;;5018901;28;20436;-89
2022/07/31 07:23:24;;;;;;;4.77;3.93;;;24.80;95.80;;;;;;5004577;28;20190;-88
2022/07/31 07:25:50;;;;;;;4.97;4.47;;;24.80;95.60;;;;;;5017130;28;20194;-87
2022/07/31 07:28:16;;;;;;;5.20;3.63;;;24.80;95.60;;;;;;5017395;28;20698;-87
2022/07/31 07:30:42;;;;;;;6.93;4.40;;;25.20;96.00;;;;;;5015502;28;20448;-87
2022/07/31 07:33:07;;;;;;;5.10;4.67;;;25.60;94.70;;;;;;5020243;28;20796;-87
2022/07/31 07:35:33;;;;;;;5.10;4.30;;;25.70;94.10;;;;;;5016351;28;21185;-86
2022/07/31 07:37:59;;;;;;;6.00;3.90;;;25.60;94.30;;;;;;5019681;28;20182;-83
2022/07/31 07:40:25;;;;;;;5.40;4.30;;;26.00;94.40;;;;;;5020318;28;21146;-83
2022/07/31 07:42:51;;;;;;;7.70;5.33;;;26.40;93.50;;;;;;5018218;28;20195;-85
2022/07/31 07:45:17;;;;;;;6.23;4.17;;;;;;;;;;5018504;28;20453;-83
2022/07/31 07:47:42;;;;;;;4.33;3.50;;;27.70;91.60;;;;;;5019748;28;20192;-82
2022/07/31 07:50:09;;;;;;;6.70;4.07;;;28.10;90.70;;;;;;5020734;28;20870;-83
2022/07/31 07:52:35;;;;;;;7.03;4.60;;;28.10;90.10;;;;;;5017610;28;20593;-82
2022/07/31 07:55:01;;;;;;;3.83;3.53;;;28.00;88.90;;;;;;5021547;28;20611;-82
2022/07/31 07:57:26;;;;;;;4.40;3.27;;;28.30;88.70;;;;;;5006956;28;20893;-83
2022/07/31 07:59:52;;;;;;;5.10;4.53;;;28.50;85.70;;;;;;5020278;28;20209;-81
2022/07/31 08:02:18;;;;;;;4.90;3.90;;;28.80;84.30;;;;;;5020919;28;20270;-81
2022/07/31 08:04:44;;;;;;;5.17;4.30;;;29.80;82.80;;;;;;5021795;28;20515;-80
2022/07/31 08:07:10;;;;;;;8.03;4.00;;;30.90;78.10;;;;;;5020934;28;20657;-79
2022/07/31 08:09:36;;;;;;;10.03;4.40;;;30.90;75.20;;;;;;5015434;28;20206;-80
2022/07/31 08:12:02;;;;;;;4.37;3.90;;;31.30;75.20;;;;;;5020141;28;20465;-81
2022/07/31 08:14:28;;;;;;;5.67;5.17;;;32.30;71.20;;;;;;5020978;28;20436;-80
2022/07/31 08:16:54;;;;;;;4.47;4.07;;;33.20;68.50;;;;;;5018263;28;20453;-81
2022/07/31 08:19:20;;;;;;;5.93;5.43;;;34.20;64.70;;;;;;5012345;28;20544;-79
2022/07/31 08:21:46;;;;;;;7.53;5.90;;;36.00;59.20;;;;;;5016554;28;20651;-80
2022/07/31 08:24:15;;;;;;;6.77;6.20;;;37.70;55.60;;;;;;5007858;28;20521;-81
2022/07/31 08:29:25;;;;;;;9.37;8.77;;;;;;;;;;5021080;28;20472;-81
2022/07/31 08:31:51;;;;;;;10.30;9.70;;;;;;;;;;5023181;28;20468;-81
2022/07/31 08:34:17;;;;;;;10.63;10.13;;;43.30;39.10;;;;;;5022595;28;20466;-80
2022/07/31 08:36:43;;;;;;;12.67;12.07;;;43.80;37.60;;;;;;5023933;28;20455;-80
2022/07/31 08:39:09;;;;;;;14.30;13.30;;;44.70;35.30;;;;;;5025945;28;20197;-81
2022/07/31 08:41:37;;;;;;;15.27;14.03;;;45.10;34.20;;;;;;5024399;28;20436;-82
2022/07/31 08:44:08;;;;;;;15.27;14.00;;;44.50;33.30;;;;;;5023479;28;20178;-81
2022/07/31 08:46:38;;;;;;;14.43;13.30;;;43.10;32.10;;;;;;5024910;28;20444;-80
2022/07/31 08:49:05;;;;;;;15.20;14.10;;;41.40;33.60;;;;;;5021958;28;20450;-82
2022/07/31 08:51:36;;;;;;;13.43;12.53;;;40.20;35.10;;;;;;5024970;28;20464;-82
2022/07/31 08:54:06;;;;;;;8.70;8.13;;;39.70;34.80;;;;;;5024145;28;20445;-81
2022/07/31 08:56:36;;;;;;;6.10;5.60;;;38.70;36.20;;;;;;5023545;28;20521;-81
2022/07/31 08:59:03;;;;;;;7.87;7.37;;;38.40;37.20;;;;;;5014049;28;20456;-79
2022/07/31 09:01:29;;;;;;;12.07;10.90;;;39.70;36.40;;;;;;5023768;28;20429;-80
2022/07/31 09:03:57;;;;;;;11.43;10.77;;;40.10;34.70;;;;;;5026160;28;20441;-81
2022/07/31 09:06:22;;;;;;;11.00;10.30;;;40.60;34.80;;;;;;5022142;28;20276;-81
2022/07/31 09:08:48;;;;;;;9.60;9.07;;;41.20;33.70;;;;;;5023268;28;20511;-83
2022/07/31 09:11:14;;;;;;;14.20;13.40;;;41.20;33.70;;;;;;5020313;28;20197;-81
2022/07/31 09:13:54;;;;;;;12.13;11.50;;;41.00;33.80;;;;;;5024737;28;21347;-81
2022/07/31 09:16:20;;;;;;;12.50;11.70;;;41.60;32.70;;;;;;5025661;28;20177;-81
2022/07/31 09:18:59;;;;;;;10.83;10.23;;;41.20;32.60;;;;;;5017266;28;20457;-80
2022/07/31 09:21:25;;;;;;;9.40;8.70;;;41.20;33.10;;;;;;5016063;28;22626;-81
2022/07/31 09:23:53;;;;;;;11.47;10.77;;;39.50;33.50;;;;;;5018539;28;20433;-81
2022/07/31 09:26:18;;;;;;;8.27;7.77;;;38.90;34.80;;;;;;5020236;28;20769;-81
2022/07/31 09:28:45;;;;;;;11.07;10.37;;;37.90;34.70;;;;;;5019899;28;20453;-82
2022/07/31 09:31:12;;;;;;;11.43;10.67;;;36.40;37.00;;;;;;5025408;28;20912;-80
2022/07/31 09:33:42;;;;;;;9.70;9.20;;;35.20;38.20;;;;;;5022237;28;20438;-82
2022/07/31 09:36:08;;;;;;;10.70;10.00;;;34.60;39.40;;;;;;5022810;28;20481;-80
2022/07/31 09:38:39;;;;;;;9.10;8.60;;;32.40;41.30;;;;;;5021814;28;20435;-81
2022/07/31 09:41:17;;;;;;;9.27;8.23;;;32.40;42.40;;;;;;5021445;28;20584;-81
2022/07/31 09:43:43;;;;;;;8.60;8.00;;;32.60;42.60;;;;;;5022588;28;20487;-80
2022/07/31 09:46:09;;;;;;;9.23;8.60;;;34.20;41.40;;;;;;5023840;28;20447;-82
2022/07/31 09:48:36;;;;;;;9.37;8.80;;;37.70;37.40;;;;;;5020830;28;20433;-81
2022/07/31 09:51:06;;;;;;;10.17;9.10;;;37.80;37.60;;;;;;5019148;28;20182;-81
2022/07/31 09:53:48;;;;;;;10.00;9.50;;;38.20;35.60;;;;;;5021251;28;20418;-81
2022/07/31 09:56:14;;;;;;;10.20;9.60;;;39.50;35.80;;;;;;5022376;28;20527;-81
2022/07/31 09:58:43;;;;;;;10.50;9.90;;;39.80;35.00;;;;;;5021391;28;20929;-81
2022/07/31 10:01:10;;;;;;;10.67;10.17;;;40.70;33.80;;;;;;5021951;28;22076;-83
2022/07/31 10:03:37;;;;;;;12.83;12.23;;;40.90;33.80;;;;;;5024569;28;20519;-84
2022/07/31 10:06:07;;;;;;;11.27;10.50;;;39.30;34.20;;;;;;5018006;28;20519;-83
2022/07/31 10:08:35;;;;;;;9.77;9.27;;;39.80;33.10;;;;;;5008776;28;20435;-85
2022/07/31 10:11:05;;;;;;;10.07;9.37;;;39.30;33.20;;;;;;5025111;28;20932;-82
2022/07/31 10:13:36;;;;;;;9.80;9.20;;;34.90;35.40;;;;;;5027964;28;20700;-82
2022/07/31 10:16:03;;;;;;;7.03;6.63;;;32.50;39.60;;;;;;5028519;28;21223;-81
2022/07/31 10:18:33;;;;;;;6.47;6.07;;;30.10;44.40;;;;;;5028338;28;20467;-83
2022/07/31 10:21:03;;;;;;;6.07;5.67;;;30.00;45.00;;;;;;5026049;28;20445;-82
2022/07/31 10:23:32;;;;;;;5.60;5.10;;;29.90;44.90;;;;;;5026112;28;20517;-81
2022/07/31 10:25:59;;;;;;;5.37;5.07;;;30.70;44.90;;;;;;5005741;28;20421;-82
2022/07/31 10:28:25;;;;;;;4.30;3.90;;;29.20;45.80;;;;;;5025148;28;20770;-82
2022/07/31 10:30:51;;;;;;;3.40;3.20;;;29.20;46.40;;;;;;5025497;28;20516;-81
2022/07/31 10:33:18;;;;;;;5.63;3.73;;;29.50;47.60;;;;;;5020133;28;20619;-80
2022/07/31 10:36:07;;;;;;;6.30;3.90;;;29.90;47.70;;;;;;5021002;28;20174;-80
2022/07/31 10:38:41;;;;;;;4.53;4.23;;;29.80;46.50;;;;;;5017254;28;20476;-81
2022/07/31 10:41:16;;;;;;;4.23;3.80;;;29.50;46.50;;;;;;5028145;28;20427;-83
2022/07/31 10:43:52;;;;;;;4.80;4.43;;;29.40;49.00;;;;;;5015961;28;20528;-84
2022/07/31 10:46:30;;;;;;;4.33;3.93;;;29.60;47.90;;;;;;5015889;28;20436;-84
2022/07/31 10:48:56;;;;;;;9.40;5.20;;;30.20;48.70;;;;;;5028179;28;20449;-82
2022/07/31 10:51:22;;;;;;;4.47;3.80;;;30.10;47.20;;;;;;5028426;28;20458;-83
2022/07/31 10:53:59;;;;;;;4.90;4.40;;;30.00;48.30;;;;;;5027757;28;20412;-82
2022/07/31 10:56:25;;;;;;;5.60;4.77;;;29.60;48.90;;;;;;5025598;28;20186;-84
2022/07/31 10:58:53;;;;;;;7.73;4.37;;;29.70;48.20;;;;;;5027162;28;20458;-79
2022/07/31 11:01:19;;;;;;;4.40;4.00;;;30.10;49.20;;;;;;5020453;28;20663;-81
2022/07/31 11:03:48;;;;;;;4.57;4.23;;;30.80;46.90;;;;;;5023471;28;20442;-81
2022/07/31 11:06:16;;;;;;;5.83;5.27;;;31.10;47.00;;;;;;5022142;28;20178;-79
2022/07/31 11:08:53;;;;;;;5.77;4.40;;;30.80;46.70;;;;;;5022179;28;20504;-80
2022/07/31 11:11:31;;;;;;;5.07;4.67;;;30.30;47.20;;;;;;5025582;28;21533;-81
2022/07/31 11:13:58;;;;;;;5.40;5.00;;;30.00;48.00;;;;;;5027953;28;20905;-81
2022/07/31 11:16:25;;;;;;;4.90;4.50;;;30.10;48.60;;;;;;5025919;28;20470;-81
2022/07/31 11:19:08;;;;;;;7.30;4.40;;;30.40;48.20;;;;;;5024289;28;20448;-80
2022/07/31 11:21:41;;;;;;;5.00;4.70;;;31.30;48.40;;;;;;5025731;28;20834;-81
2022/07/31 11:24:18;;;;;;;4.43;4.03;;;30.50;45.80;;;;;;5028026;28;20454;-80
2022/07/31 11:26:54;;;;;;;4.80;4.40;;;30.10;47.60;;;;;;5029065;28;20773;-81
2022/07/31 11:29:31;;;;;;;6.50;4.67;;;30.40;48.10;;;;;;5032272;28;20542;-80
2022/07/31 11:32:12;;;;;;;4.80;4.40;;;29.80;47.30;;;;;;5027694;28;20532;-80
2022/07/31 11:34:54;;;;;;;5.00;4.60;;;29.60;48.10;;;;;;5028936;28;21209;-81
2022/07/31 11:37:27;;;;;;;6.80;4.77;;;29.60;48.50;;;;;;5027857;28;20427;-81
2022/07/31 11:39:54;;;;;;;5.03;4.63;;;30.20;48.80;;;;;;5029437;28;20466;-80
2022/07/31 11:42:21;;;;;;;8.63;4.47;;;30.30;47.30;;;;;;5027573;28;20428;-80
2022/07/31 11:44:47;;;;;;;4.57;4.17;;;30.10;46.30;;;;;;5029506;28;21225;-81
2022/07/31 11:47:13;;;;;;;4.40;4.20;;;30.30;47.20;;;;;;5026843;28;20417;-81
2022/07/31 11:49:39;;;;;;;5.97;4.30;;;31.20;47.60;;;;;;5026110;28;20991;-81
2022/07/31 11:52:12;;;;;;;5.90;3.30;;;30.90;46.10;;;;;;5025963;28;20456;-80
2022/07/31 11:54:38;;;;;;;4.87;4.47;;;30.70;46.90;;;;;;5027642;28;20167;-81
2022/07/31 11:57:05;;;;;;;4.77;3.60;;;30.60;47.60;;;;;;5025677;28;20405;-80
2022/07/31 11:59:38;;;;;;;6.07;3.93;;;30.30;47.90;;;;;;5024700;28;20684;-81
2022/07/31 12:02:05;;;;;;;6.17;3.70;;;30.30;47.80;;;;;;5028439;28;20436;-81
2022/07/31 12:04:32;;;;;;;4.27;3.87;;;30.70;48.10;;;;;;5025172;28;20440;-81
2022/07/31 12:06:59;;;;;;;5.23;4.73;;;31.10;47.10;;;;;;5025332;28;20524;-81
2022/07/31 12:09:24;;;;;;;5.03;4.73;;;31.50;46.50;;;;;;5024328;28;21010;-81
2022/07/31 12:11:50;;;;;;;5.13;4.73;;;31.30;46.00;;;;;;5026833;28;20462;-81
2022/07/31 12:14:34;;;;;;;4.90;4.20;;;30.90;45.80;;;;;;5025803;28;20175;-81
2022/07/31 12:17:02;;;;;;;4.77;4.47;;;30.80;47.20;;;;;;5025601;28;20209;-81
2022/07/31 12:19:30;;;;;;;4.33;4.03;;;30.80;47.20;;;;;;5024130;28;20448;-79
2022/07/31 12:21:56;;;;;;;5.10;4.60;;;30.30;47.40;;;;;;5025961;28;20422;-80
2022/07/31 12:24:22;;;;;;;4.20;3.90;;;29.90;48.20;;;;;;5024846;28;20427;-80
2022/07/31 12:26:58;;;;;;;7.73;4.77;;;30.40;48.50;;;;;;5026152;28;20436;-81
2022/07/31 12:29:34;;;;;;;4.87;4.47;;;31.00;48.50;;;;;;5026936;28;20452;-80
2022/07/31 12:32:00;;;;;;;9.03;3.83;;;30.80;46.80;;;;;;5026707;28;20471;-80
2022/07/31 12:34:30;;;;;;;4.27;3.97;;;30.60;47.10;;;;;;5027562;28;20429;-80
2022/07/31 12:37:00;;;;;;;4.50;4.10;;;30.70;47.40;;;;;;5029583;28;20194;-79
2022/07/31 12:39:25;;;;;;;4.37;3.73;;;30.80;47.60;;;;;;5024736;28;20449;-79
2022/07/31 12:41:51;;;;;;;5.37;4.87;;;31.50;48.20;;;;;;5032194;28;20432;-80
2022/07/31 12:44:16;;;;;;;4.60;4.20;;;32.10;45.60;;;;;;5027228;28;20191;-79
2022/07/31 12:46:42;;;;;;;4.73;4.53;;;31.80;44.80;;;;;;5012664;28;20190;-80
2022/07/31 12:49:08;;;;;;;5.07;4.67;;;30.80;44.70;;;;;;5025721;28;20197;-79
2022/07/31 12:51:35;;;;;;;6.63;4.87;;;30.60;44.40;;;;;;5026110;28;20281;-80